Angora, Nebraska
Current Conditions -  °F | °C
As of 7:53 PM on Thursday 18 Dec 2014 (Local Time) from KAIA Reporting Station
Clear Clear  
Wind Chill:   Ceiling: Unl
Heat Index: 14°   Visibility: 10mi
Dew Point: 12°   Wind: 7mph
Humidity: 92%   Direction: 270°W
Pressure: 30.06"   Gusts: NA
Location:  41.85°N, 103.13°W
Report Text: KAIA 190253Z AUTO 27006KT 10SM CLR M10/M11 A3006 RMK AO2 SLP247 T11001111 51011
Loading
Personal Weather Stations






























Interactive Weather Map New forecast layout! Learn more

10-Day Weather Forecast

Advertisements
Track Severe Weather on mobile